CheckWX is a tool to help pilots better visualize weather data.  It is not intended as a substitute for an official pre-flight weather briefing.

12:36:48 UTC

DAOB METAR
Bou Chekif Airport
Tiaret, Algeria
Current

37 mins ago

DAOB 041200Z 10009KT 9999 FEW026 14/08 Q1018
Observed
Apr-4 @ 12:00 UTC
Wind
  • 100° at 9 KTS
Visibility
10,000+ meters
Flight Rules
VFR
Cloud Levels
  • Few at 2,600' AGL
Temperature
14°C / 57°F
Dewpoint
C / 46°F
Humidity
67%
Altimeter
30.06" Hg
Pressure
1017.92 hPa
Previous

2 hours ago

DAOB 041100Z 10011KT 9999 FEW026 13/08 Q1019
Observed
Apr-4 @ 11:00 UTC
Wind
  • 100° at 11 KTS
Visibility
10,000+ meters
Flight Rules
VFR
Cloud Levels
  • Few at 2,600' AGL
Temperature
13°C / 55°F
Dewpoint
C / 46°F
Humidity
72%
Altimeter
30.09" Hg
Pressure
1018.92 hPa
Previous

3 hours ago

DAOB 041000Z 09011KT 9999 FEW026 12/09 Q1019
Observed
Apr-4 @ 10:00 UTC
Wind
  • 090° at 11 KTS
Visibility
10,000+ meters
Flight Rules
VFR
Cloud Levels
  • Few at 2,600' AGL
Temperature
12°C / 54°F
Dewpoint
C / 48°F
Humidity
82%
Altimeter
30.09" Hg
Pressure
1018.92 hPa